Albion, Idaho
Current Conditions -  °F | °C
As of 10:53 AM on Monday 24 Nov 2014 (Local Time) from KBYI Reporting Station
Clear Clear  
Wind Chill: 28°   Ceiling: Unl
Heat Index: 37°   Visibility: 10mi
Dew Point: 26°   Wind: 16mph
Humidity: 65%   Direction: 280°W
Pressure: 30.37"   Gusts: 24mph
Location:  42.41°N, 113.58°W
Report Text: KBYI 241753Z AUTO 28014G21KT 10SM CLR 03/M03 A3037 RMK AO2 SLP295 T00281033 10033 21006 53025
Loading
Personal Weather Stations






























Interactive Weather Map New forecast layout! Learn more

10-Day Weather Forecast

Advertisements
Track Severe Weather on mobile